sensor_id;sensor_type;location;lat;lon;timestamp;pressure;altitude;pressure_sealevel;temperature;humidity
31346;BME280;21711;49.708;18.568;2023-01-28T00:01:35;97601.63;;;-1.29;100.00
31346;BME280;21711;49.708;18.568;2023-01-28T00:04:02;97605.44;;;-1.25;100.00
31346;BME280;21711;49.708;18.568;2023-01-28T00:06:30;97597.31;;;-1.22;100.00
31346;BME280;21711;49.708;18.568;2023-01-28T00:08:57;97606.91;;;-1.15;100.00
31346;BME280;21711;49.708;18.568;2023-01-28T00:11:25;97603.91;;;-1.19;100.00
31346;BME280;21711;49.708;18.568;2023-01-28T00:13:53;97599.84;;;-1.28;100.00
31346;BME280;21711;49.708;18.568;2023-01-28T00:16:21;97602.63;;;-1.30;100.00
31346;BME280;21711;49.708;18.568;2023-01-28T00:18:48;97603.25;;;-1.28;100.00
31346;BME280;21711;49.708;18.568;2023-01-28T00:21:16;97605.41;;;-1.32;100.00
31346;BME280;21711;49.708;18.568;2023-01-28T00:23:52;97602.56;;;-1.37;100.00
31346;BME280;21711;49.708;18.568;2023-01-28T00:26:22;97598.25;;;-1.29;100.00
31346;BME280;21711;49.708;18.568;2023-01-28T00:28:50;97598.84;;;-1.27;100.00
31346;BME280;21711;49.708;18.568;2023-01-28T00:31:23;97591.81;;;-1.55;100.00
31346;BME280;21711;49.708;18.568;2023-01-28T00:33:54;97602.63;;;-1.30;100.00
31346;BME280;21711;49.708;18.568;2023-01-28T00:36:24;97591.13;;;-1.21;100.00
31346;BME280;21711;49.708;18.568;2023-01-28T00:38:58;97595.78;;;-1.38;100.00
31346;BME280;21711;49.708;18.568;2023-01-28T00:41:28;97594.97;;;-1.38;100.00
31346;BME280;21711;49.708;18.568;2023-01-28T00:43:57;97593.59;;;-1.34;100.00
31346;BME280;21711;49.708;18.568;2023-01-28T00:46:25;97596.44;;;-1.29;100.00
31346;BME280;21711;49.708;18.568;2023-01-28T00:48:53;97592.53;;;-1.18;100.00
31346;BME280;21711;49.708;18.568;2023-01-28T00:51:21;97594.28;;;-1.25;100.00
31346;BME280;21711;49.708;18.568;2023-01-28T00:53:48;97594.59;;;-1.35;100.00
31346;BME280;21711;49.708;18.568;2023-01-28T00:56:17;97596.59;;;-1.37;100.00
31346;BME280;21711;49.708;18.568;2023-01-28T00:58:46;97603.03;;;-1.26;100.00
31346;BME280;21711;49.708;18.568;2023-01-28T01:01:25;97603.91;;;-1.41;100.00
31346;BME280;21711;49.708;18.568;2023-01-28T01:03:54;97599.13;;;-1.44;100.00
31346;BME280;21711;49.708;18.568;2023-01-28T01:06:36;97606.44;;;-1.48;100.00
31346;BME280;21711;49.708;18.568;2023-01-28T01:09:06;97604.84;;;-1.49;100.00
31346;BME280;21711;49.708;18.568;2023-01-28T01:11:35;97606.09;;;-1.44;100.00
31346;BME280;21711;49.708;18.568;2023-01-28T01:14:03;97615.56;;;-1.59;100.00
31346;BME280;21711;49.708;18.568;2023-01-28T01:16:32;97619.50;;;-1.41;100.00
31346;BME280;21711;49.708;18.568;2023-01-28T01:19:01;97618.47;;;-1.47;100.00
31346;BME280;21711;49.708;18.568;2023-01-28T01:21:29;97609.34;;;-1.36;100.00
31346;BME280;21711;49.708;18.568;2023-01-28T01:23:57;97611.16;;;-1.36;100.00
31346;BME280;21711;49.708;18.568;2023-01-28T01:26:24;97614.13;;;-1.39;100.00
31346;BME280;21711;49.708;18.568;2023-01-28T01:28:56;97618.94;;;-1.36;100.00
31346;BME280;21711;49.708;18.568;2023-01-28T01:31:24;97616.53;;;-1.38;100.00
31346;BME280;21711;49.708;18.568;2023-01-28T01:33:52;97611.22;;;-1.29;100.00
31346;BME280;21711;49.708;18.568;2023-01-28T01:36:19;97616.59;;;-1.31;100.00
31346;BME280;21711;49.708;18.568;2023-01-28T01:38:52;97619.69;;;-1.42;100.00
31346;BME280;21711;49.708;18.568;2023-01-28T01:41:30;97626.72;;;-1.36;100.00
31346;BME280;21711;49.708;18.568;2023-01-28T01:44:03;97625.38;;;-1.54;100.00
31346;BME280;21711;49.708;18.568;2023-01-28T01:46:50;97621.97;;;-1.54;100.00
31346;BME280;21711;49.708;18.568;2023-01-28T01:49:26;97627.72;;;-1.37;100.00
31346;BME280;21711;49.708;18.568;2023-01-28T01:52:11;97621.91;;;-1.39;100.00
31346;BME280;21711;49.708;18.568;2023-01-28T01:54:41;97630.66;;;-1.62;100.00
31346;BME280;21711;49.708;18.568;2023-01-28T01:57:15;97623.06;;;-1.42;100.00
31346;BME280;21711;49.708;18.568;2023-01-28T01:59:43;97621.97;;;-1.54;100.00
31346;BME280;21711;49.708;18.568;2023-01-28T02:02:11;97629.63;;;-1.46;100.00
31346;BME280;21711;49.708;18.568;2023-01-28T02:04:42;97626.72;;;-1.36;100.00
31346;BME280;21711;49.708;18.568;2023-01-28T02:07:15;97627.59;;;-1.51;100.00
31346;BME280;21711;49.708;18.568;2023-01-28T02:09:45;97624.38;;;-1.53;100.00
31346;BME280;21711;49.708;18.568;2023-01-28T02:12:26;97626.84;;;-1.44;100.00
31346;BME280;21711;49.708;18.568;2023-01-28T02:15:20;97629.56;;;-1.53;100.00
31346;BME280;21711;49.708;18.568;2023-01-28T02:17:49;97635.56;;;-1.52;100.00
31346;BME280;21711;49.708;18.568;2023-01-28T02:20:24;97631.75;;;-1.35;100.00
31346;BME280;21711;49.708;18.568;2023-01-28T02:31:58;97638.88;;;-1.37;100.00
31346;BME280;21711;49.708;18.568;2023-01-28T02:34:56;97631.50;;;-1.40;100.00
31346;BME280;21711;49.708;18.568;2023-01-28T02:37:46;97631.69;;;-1.41;100.00
31346;BME280;21711;49.708;18.568;2023-01-28T02:40:23;97626.78;;;-1.51;100.00
31346;BME280;21711;49.708;18.568;2023-01-28T02:42:58;97633.03;;;-1.46;100.00
31346;BME280;21711;49.708;18.568;2023-01-28T02:45:31;97627.84;;;-1.46;100.00
31346;BME280;21711;49.708;18.568;2023-01-28T02:48:20;97631.28;;;-1.38;100.00
31346;BME280;21711;49.708;18.568;2023-01-28T02:53:43;97632.09;;;-1.38;100.00
31346;BME280;21711;49.708;18.568;2023-01-28T02:56:40;97637.34;;;-1.31;100.00
31346;BME280;21711;49.708;18.568;2023-01-28T02:59:34;97635.06;;;-1.41;100.00
31346;BME280;21711;49.708;18.568;2023-01-28T03:05:06;97631.19;;;-1.52;100.00
31346;BME280;21711;49.708;18.568;2023-01-28T03:07:38;97633.69;;;-1.37;100.00
31346;BME280;21711;49.708;18.568;2023-01-28T03:10:10;97635.25;;;-1.42;100.00
31346;BME280;21711;49.708;18.568;2023-01-28T03:12:43;97633.81;;;-1.45;100.00
31346;BME280;21711;49.708;18.568;2023-01-28T03:15:48;97635.69;;;-1.39;100.00
31346;BME280;21711;49.708;18.568;2023-01-28T03:18:45;97633.53;;;-1.35;100.00
31346;BME280;21711;49.708;18.568;2023-01-28T03:21:37;97630.19;;;-1.51;100.00
31346;BME280;21711;49.708;18.568;2023-01-28T03:24:45;97626.31;;;-1.40;100.00
31346;BME280;21711;49.708;18.568;2023-01-28T03:27:45;97631.03;;;-1.43;100.00
31346;BME280;21711;49.708;18.568;2023-01-28T03:31:08;97629.63;;;-1.46;100.00
31346;BME280;21711;49.708;18.568;2023-01-28T03:33:56;97635.91;;;-1.55;100.00
31346;BME280;21711;49.708;18.568;2023-01-28T03:36:44;97638.59;;;-1.49;100.00
31346;BME280;21711;49.708;18.568;2023-01-28T03:39:39;97634.63;;;-1.44;100.00
31346;BME280;21711;49.708;18.568;2023-01-28T03:42:12;97634.88;;;-1.39;100.00
31346;BME280;21711;49.708;18.568;2023-01-28T03:45:15;97632.69;;;-1.36;100.00
31346;BME280;21711;49.708;18.568;2023-01-28T03:47:45;97638.53;;;-1.34;100.00
31346;BME280;21711;49.708;18.568;2023-01-28T03:50:12;97630.97;;;-1.28;100.00
31346;BME280;21711;49.708;18.568;2023-01-28T03:52:50;97634.75;;;-1.31;100.00
31346;BME280;21711;49.708;18.568;2023-01-28T03:55:28;97640.00;;;-1.46;100.00
31346;BME280;21711;49.708;18.568;2023-01-28T03:57:55;97645.25;;;-1.39;100.00
31346;BME280;21711;49.708;18.568;2023-01-28T04:00:22;97643.91;;;-1.35;100.00
31346;BME280;21711;49.708;18.568;2023-01-28T04:02:50;97644.25;;;-1.38;100.00
31346;BME280;21711;49.708;18.568;2023-01-28T04:05:19;97646.84;;;-1.38;100.00
31346;BME280;21711;49.708;18.568;2023-01-28T04:07:48;97647.84;;;-1.39;100.00
31346;BME280;21711;49.708;18.568;2023-01-28T04:10:25;97647.72;;;-1.31;100.00
31346;BME280;21711;49.708;18.568;2023-01-28T04:13:18;97646.72;;;-1.30;100.00
31346;BME280;21711;49.708;18.568;2023-01-28T04:15:46;97649.94;;;-1.50;100.00
31346;BME280;21711;49.708;18.568;2023-01-28T04:18:15;97651.56;;;-1.49;100.00
31346;BME280;21711;49.708;18.568;2023-01-28T04:20:42;97647.59;;;-1.44;100.00
31346;BME280;21711;49.708;18.568;2023-01-28T04:23:09;97652.56;;;-1.28;100.00
31346;BME280;21711;49.708;18.568;2023-01-28T04:25:37;97657.94;;;-1.29;100.00
31346;BME280;21711;49.708;18.568;2023-01-28T04:28:07;97658.00;;;-1.23;100.00
31346;BME280;21711;49.708;18.568;2023-01-28T04:30:34;97654.28;;;-1.35;100.00
31346;BME280;21711;49.708;18.568;2023-01-28T04:33:22;97654.53;;;-1.52;100.00
31346;BME280;21711;49.708;18.568;2023-01-28T04:35:49;97659.75;;;-1.45;100.00
31346;BME280;21711;49.708;18.568;2023-01-28T04:38:40;97660.81;;;-1.39;100.00
31346;BME280;21711;49.708;18.568;2023-01-28T04:41:23;97668.69;;;-1.54;100.00
31346;BME280;21711;49.708;18.568;2023-01-28T04:43:50;97665.59;;;-1.43;100.00
31346;BME280;21711;49.708;18.568;2023-01-28T04:46:53;97664.53;;;-1.49;100.00
31346;BME280;21711;49.708;18.568;2023-01-28T04:49:41;97668.06;;;-1.35;100.00
31346;BME280;21711;49.708;18.568;2023-01-28T04:52:25;97669.59;;;-1.40;100.00
31346;BME280;21711;49.708;18.568;2023-01-28T04:55:04;97669.84;;;-1.35;100.00
31346;BME280;21711;49.708;18.568;2023-01-28T04:57:32;97670.53;;;-1.48;100.00
31346;BME280;21711;49.708;18.568;2023-01-28T05:00:00;97668.53;;;-1.46;100.00
31346;BME280;21711;49.708;18.568;2023-01-28T05:02:27;97668.69;;;-1.54;100.00
31346;BME280;21711;49.708;18.568;2023-01-28T05:04:54;97672.41;;;-1.57;100.00
31346;BME280;21711;49.708;18.568;2023-01-28T05:07:36;97668.97;;;-1.64;100.00
31346;BME280;21711;49.708;18.568;2023-01-28T05:10:04;97674.59;;;-1.61;100.00
31346;BME280;21711;49.708;18.568;2023-01-28T05:12:32;97666.19;;;-1.63;100.00
31346;BME280;21711;49.708;18.568;2023-01-28T05:15:03;97669.06;;;-1.73;100.00
31346;BME280;21711;49.708;18.568;2023-01-28T05:17:31;97670.00;;;-1.80;100.00
31346;BME280;21711;49.708;18.568;2023-01-28T05:19:58;97671.16;;;-1.83;100.00
31346;BME280;21711;49.708;18.568;2023-01-28T05:22:27;97668.00;;;-1.78;100.00
31346;BME280;21711;49.708;18.568;2023-01-28T05:25:27;97673.50;;;-1.88;100.00
31346;BME280;21711;49.708;18.568;2023-01-28T05:27:55;97681.44;;;-1.75;100.00
31346;BME280;21711;49.708;18.568;2023-01-28T05:30:24;97684.16;;;-1.61;100.00
31346;BME280;21711;49.708;18.568;2023-01-28T05:32:55;97681.00;;;-1.56;100.00
31346;BME280;21711;49.708;18.568;2023-01-28T05:35:22;97678.34;;;-1.63;100.00
31346;BME280;21711;49.708;18.568;2023-01-28T05:37:50;97683.28;;;-1.68;100.00
31346;BME280;21711;49.708;18.568;2023-01-28T05:40:18;97679.53;;;-1.81;100.00
31346;BME280;21711;49.708;18.568;2023-01-28T05:42:45;97693.22;;;-1.72;100.00
31346;BME280;21711;49.708;18.568;2023-01-28T05:45:25;97685.38;;;-1.94;100.00
31346;BME280;21711;49.708;18.568;2023-01-28T05:48:02;97688.25;;;-1.89;100.00
31346;BME280;21711;49.708;18.568;2023-01-28T05:50:41;97712.81;;;-1.85;100.00
31346;BME280;21711;49.708;18.568;2023-01-28T05:53:19;97688.41;;;-1.90;100.00
31346;BME280;21711;49.708;18.568;2023-01-28T05:55:49;97698.00;;;-1.91;100.00
31346;BME280;21711;49.708;18.568;2023-01-28T05:58:17;97698.03;;;-1.69;100.00
31346;BME280;21711;49.708;18.568;2023-01-28T06:00:44;97701.72;;;-1.78;100.00
31346;BME280;21711;49.708;18.568;2023-01-28T06:03:13;97712.31;;;-1.58;100.00
31346;BME280;21711;49.708;18.568;2023-01-28T06:05:40;97712.16;;;-1.72;100.00
31346;BME280;21711;49.708;18.568;2023-01-28T06:08:07;97708.22;;;-1.67;100.00
31346;BME280;21711;49.708;18.568;2023-01-28T06:10:35;97717.56;;;-1.73;100.00
31346;BME280;21711;49.708;18.568;2023-01-28T06:13:03;97718.59;;;-1.67;100.00
31346;BME280;21711;49.708;18.568;2023-01-28T06:15:36;97723.09;;;-1.61;100.00
31346;BME280;21711;49.708;18.568;2023-01-28T06:18:23;97728.91;;;-1.74;100.00
31346;BME280;21711;49.708;18.568;2023-01-28T06:20:51;97730.06;;;-1.62;100.00
31346;BME280;21711;49.708;18.568;2023-01-28T06:23:19;97739.28;;;-1.74;100.00
31346;BME280;21711;49.708;18.568;2023-01-28T06:25:46;97737.94;;;-1.70;100.00
31346;BME280;21711;49.708;18.568;2023-01-28T06:28:15;97740.25;;;-1.60;100.00
31346;BME280;21711;49.708;18.568;2023-01-28T06:30:42;97739.16;;;-1.51;100.00
31346;BME280;21711;49.708;18.568;2023-01-28T06:33:09;97744.19;;;-1.64;100.00
31346;BME280;21711;49.708;18.568;2023-01-28T06:35:36;97751.22;;;-1.58;100.00
31346;BME280;21711;49.708;18.568;2023-01-28T06:38:04;97754.00;;;-1.60;100.00
31346;BME280;21711;49.708;18.568;2023-01-28T06:40:31;97756.97;;;-1.63;100.00
31346;BME280;21711;49.708;18.568;2023-01-28T06:42:58;97750.72;;;-1.68;100.00
31346;BME280;21711;49.708;18.568;2023-01-28T06:45:26;97754.38;;;-1.63;100.00
31346;BME280;21711;49.708;18.568;2023-01-28T06:47:53;97755.72;;;-1.67;100.00
31346;BME280;21711;49.708;18.568;2023-01-28T06:50:20;97755.72;;;-1.67;100.00
31346;BME280;21711;49.708;18.568;2023-01-28T06:52:47;97757.50;;;-1.52;100.00
31346;BME280;21711;49.708;18.568;2023-01-28T06:55:17;97762.13;;;-1.48;100.00
31346;BME280;21711;49.708;18.568;2023-01-28T06:57:45;97763.50;;;-1.52;100.00
31346;BME280;21711;49.708;18.568;2023-01-28T07:02:42;97768.03;;;-1.54;100.00
31346;BME280;21711;49.708;18.568;2023-01-28T07:05:10;97768.88;;;-1.53;100.00
31346;BME280;21711;49.708;18.568;2023-01-28T07:07:37;97771.91;;;-1.65;100.00
31346;BME280;21711;49.708;18.568;2023-01-28T07:10:09;97775.81;;;-1.54;100.00
31346;BME280;21711;49.708;18.568;2023-01-28T07:12:37;97777.50;;;-1.46;100.00
31346;BME280;21711;49.708;18.568;2023-01-28T07:15:05;97776.53;;;-1.45;100.00
31346;BME280;21711;49.708;18.568;2023-01-28T07:17:32;97782.69;;;-1.46;100.00
31346;BME280;21711;49.708;18.568;2023-01-28T07:20:00;97781.06;;;-1.32;100.00
31346;BME280;21711;49.708;18.568;2023-01-28T07:22:27;97784.75;;;-1.41;100.00
31346;BME280;21711;49.708;18.568;2023-01-28T07:24:54;97790.31;;;-1.44;100.00
31346;BME280;21711;49.708;18.568;2023-01-28T07:27:21;97794.75;;;-1.38;100.00
31346;BME280;21711;49.708;18.568;2023-01-28T07:29:49;97795.91;;;-1.26;100.00
31346;BME280;21711;49.708;18.568;2023-01-28T07:32:16;97794.81;;;-1.16;100.00
31346;BME280;21711;49.708;18.568;2023-01-28T07:34:43;97793.91;;;-1.24;100.00
31346;BME280;21711;49.708;18.568;2023-01-28T07:37:11;97791.03;;;-1.14;100.00
31346;BME280;21711;49.708;18.568;2023-01-28T07:39:38;97800.63;;;-1.14;100.00
31346;BME280;21711;49.708;18.568;2023-01-28T07:42:05;97789.25;;;-1.13;100.00
31346;BME280;21711;49.708;18.568;2023-01-28T07:44:37;97794.00;;;-1.17;100.00
31346;BME280;21711;49.708;18.568;2023-01-28T07:47:05;97794.38;;;-0.98;100.00
31346;BME280;21711;49.708;18.568;2023-01-28T07:49:33;97801.19;;;-1.19;100.00
31346;BME280;21711;49.708;18.568;2023-01-28T07:52:01;97801.47;;;-0.92;100.00
31346;BME280;21711;49.708;18.568;2023-01-28T07:54:28;97798.63;;;-0.97;100.00
31346;BME280;21711;49.708;18.568;2023-01-28T07:57:01;97793.16;;;-1.02;100.00
31346;BME280;21711;49.708;18.568;2023-01-28T07:59:28;97809.25;;;-0.92;100.00
31346;BME280;21711;49.708;18.568;2023-01-28T08:01:55;97799.59;;;-0.98;100.00
31346;BME280;21711;49.708;18.568;2023-01-28T08:04:22;97801.78;;;-1.17;100.00
31346;BME280;21711;49.708;18.568;2023-01-28T08:06:50;97795.50;;;-1.08;100.00
31346;BME280;21711;49.708;18.568;2023-01-28T08:09:18;97807.19;;;-1.18;100.00
31346;BME280;21711;49.708;18.568;2023-01-28T08:11:45;97809.56;;;-1.17;100.00
31346;BME280;21711;49.708;18.568;2023-01-28T08:14:13;97808.38;;;-0.99;100.00
31346;BME280;21711;49.708;18.568;2023-01-28T08:16:40;97813.31;;;-1.04;100.00
31346;BME280;21711;49.708;18.568;2023-01-28T08:19:07;97812.69;;;-1.07;100.00
31346;BME280;21711;49.708;18.568;2023-01-28T08:21:35;97809.81;;;-1.12;100.00
31346;BME280;21711;49.708;18.568;2023-01-28T08:24:05;97810.63;;;-1.11;100.00
31346;BME280;21711;49.708;18.568;2023-01-28T08:26:32;97805.09;;;-0.86;100.00
31346;BME280;21711;49.708;18.568;2023-01-28T08:28:59;97802.13;;;-0.83;100.00
31346;BME280;21711;49.708;18.568;2023-01-28T08:31:27;97815.53;;;-0.80;100.00
31346;BME280;21711;49.708;18.568;2023-01-28T08:33:55;97821.13;;;-0.83;100.00
31346;BME280;21711;49.708;18.568;2023-01-28T08:36:22;97820.03;;;-1.10;100.00
31346;BME280;21711;49.708;18.568;2023-01-28T08:38:53;97820.25;;;-0.90;100.00
31346;BME280;21711;49.708;18.568;2023-01-28T08:41:21;97823.78;;;-0.76;100.00
31346;BME280;21711;49.708;18.568;2023-01-28T08:43:49;97823.72;;;-0.83;100.00
31346;BME280;21711;49.708;18.568;2023-01-28T08:46:16;97829.78;;;-0.75;100.00
31346;BME280;21711;49.708;18.568;2023-01-28T08:48:43;97833.81;;;-0.95;100.00
31346;BME280;21711;49.708;18.568;2023-01-28T08:51:10;97826.22;;;-1.11;100.00
31346;BME280;21711;49.708;18.568;2023-01-28T08:53:38;97838.91;;;-1.01;100.00
31346;BME280;21711;49.708;18.568;2023-01-28T08:56:05;97833.38;;;-0.76;100.00
31346;BME280;21711;49.708;18.568;2023-01-28T08:58:33;97833.91;;;-0.81;100.00
31346;BME280;21711;49.708;18.568;2023-01-28T09:01:05;97836.31;;;-0.80;100.00
31346;BME280;21711;49.708;18.568;2023-01-28T09:03:33;97837.00;;;-0.93;100.00
31346;BME280;21711;49.708;18.568;2023-01-28T09:06:03;97848.56;;;-0.95;100.00
31346;BME280;21711;49.708;18.568;2023-01-28T09:08:30;97850.41;;;-1.11;100.00
31346;BME280;21711;49.708;18.568;2023-01-28T09:10:58;97850.47;;;-1.04;100.00
31346;BME280;21711;49.708;18.568;2023-01-28T09:13:26;97853.31;;;-0.99;100.00
31346;BME280;21711;49.708;18.568;2023-01-28T09:15:56;97852.84;;;-0.87;100.00
31346;BME280;21711;49.708;18.568;2023-01-28T09:18:24;97855.06;;;-0.84;100.00
31346;BME280;21711;49.708;18.568;2023-01-28T09:20:51;97852.53;;;-0.77;100.00
31346;BME280;21711;49.708;18.568;2023-01-28T09:23:18;97854.44;;;-0.21;100.00
31346;BME280;21711;49.708;18.568;2023-01-28T09:25:45;97855.91;;;-0.11;100.00
31346;BME280;21711;49.708;18.568;2023-01-28T09:28:13;97861.25;;;0.09;100.00
31346;BME280;21711;49.708;18.568;2023-01-28T09:30:40;97850.09;;;-0.14;100.00
31346;BME280;21711;49.708;18.568;2023-01-28T09:33:07;97848.91;;;-0.11;100.00
31346;BME280;21711;49.708;18.568;2023-01-28T09:35:35;97857.06;;;0.08;100.00
31346;BME280;21711;49.708;18.568;2023-01-28T09:38:03;97862.09;;;0.16;100.00
31346;BME280;21711;49.708;18.568;2023-01-28T09:40:40;97858.25;;;0.05;100.00
31346;BME280;21711;49.708;18.568;2023-01-28T09:43:47;97846.97;;;-0.02;100.00
31346;BME280;21711;49.708;18.568;2023-01-28T09:46:17;97858.44;;;0.04;100.00
31346;BME280;21711;49.708;18.568;2023-01-28T09:48:50;97861.06;;;-0.18;100.00
31346;BME280;21711;49.708;18.568;2023-01-28T09:51:34;97857.41;;;-0.24;100.00
31346;BME280;21711;49.708;18.568;2023-01-28T09:54:41;97846.50;;;-0.63;100.00
31346;BME280;21711;49.708;18.568;2023-01-28T09:57:36;97854.91;;;-0.39;100.00
31346;BME280;21711;49.708;18.568;2023-01-28T10:09:48;97856.19;;;-0.28;100.00
31346;BME280;21711;49.708;18.568;2023-01-28T10:15:34;97858.28;;;-0.38;100.00
31346;BME280;21711;49.708;18.568;2023-01-28T10:18:11;97857.91;;;-0.35;100.00
31346;BME280;21711;49.708;18.568;2023-01-28T10:20:54;97857.38;;;-0.31;100.00
31346;BME280;21711;49.708;18.568;2023-01-28T10:26:38;97857.81;;;-0.71;100.00
31346;BME280;21711;49.708;18.568;2023-01-28T10:29:28;97856.50;;;-0.82;100.00
31346;BME280;21711;49.708;18.568;2023-01-28T10:32:21;97846.75;;;-0.58;100.00
31346;BME280;21711;49.708;18.568;2023-01-28T10:34:52;97851.91;;;-0.80;100.00
31346;BME280;21711;49.708;18.568;2023-01-28T10:37:20;97858.38;;;-0.54;100.00
31346;BME280;21711;49.708;18.568;2023-01-28T10:39:48;97860.16;;;-0.32;100.00
31346;BME280;21711;49.708;18.568;2023-01-28T10:42:37;97853.69;;;-0.15;100.00
31346;BME280;21711;49.708;18.568;2023-01-28T10:45:22;97856.13;;;-0.35;100.00
31346;BME280;21711;49.708;18.568;2023-01-28T10:48:20;97859.44;;;-0.19;100.00
31346;BME280;21711;49.708;18.568;2023-01-28T10:50:59;97860.75;;;-0.30;100.00
31346;BME280;21711;49.708;18.568;2023-01-28T10:53:42;97853.59;;;-0.28;100.00
31346;BME280;21711;49.708;18.568;2023-01-28T10:56:36;97853.41;;;-0.48;100.00
31346;BME280;21711;49.708;18.568;2023-01-28T10:59:17;97850.47;;;-0.38;100.00
31346;BME280;21711;49.708;18.568;2023-01-28T11:04:33;97856.28;;;-0.15;100.00
31346;BME280;21711;49.708;18.568;2023-01-28T11:07:18;97853.78;;;-0.01;100.00
31346;BME280;21711;49.708;18.568;2023-01-28T11:09:49;97860.06;;;0.11;100.00
31346;BME280;21711;49.708;18.568;2023-01-28T11:12:27;97856.53;;;-0.09;100.00
31346;BME280;21711;49.708;18.568;2023-01-28T11:15:01;97846.91;;;-0.37;100.00
31346;BME280;21711;49.708;18.568;2023-01-28T11:17:33;97858.97;;;-0.30;100.00
31346;BME280;21711;49.708;18.568;2023-01-28T11:20:18;97856.84;;;-0.19;100.00
31346;BME280;21711;49.708;18.568;2023-01-28T11:22:48;97856.13;;;-0.06;100.00
31346;BME280;21711;49.708;18.568;2023-01-28T11:25:22;97855.34;;;-0.07;100.00
31346;BME280;21711;49.708;18.568;2023-01-28T11:27:53;97859.94;;;-0.09;100.00
31346;BME280;21711;49.708;18.568;2023-01-28T11:30:30;97860.63;;;-0.22;100.00
31346;BME280;21711;49.708;18.568;2023-01-28T11:33:44;97858.41;;;-0.25;100.00
31346;BME280;21711;49.708;18.568;2023-01-28T11:36:32;97851.94;;;-0.58;100.00
31346;BME280;21711;49.708;18.568;2023-01-28T11:39:23;97857.16;;;-0.29;100.00
31346;BME280;21711;49.708;18.568;2023-01-28T11:41:52;97857.75;;;-0.05;100.00
31346;BME280;21711;49.708;18.568;2023-01-28T11:44:23;97857.13;;;-0.07;100.00
31346;BME280;21711;49.708;18.568;2023-01-28T12:02:41;97848.28;;;-0.63;100.00
31346;BME280;21711;49.708;18.568;2023-01-28T12:08:25;97850.50;;;-0.60;100.00
31346;BME280;21711;49.708;18.568;2023-01-28T12:25:37;97848.03;;;-0.69;100.00
31346;BME280;21711;49.708;18.568;2023-01-28T12:28:56;97856.50;;;-0.82;100.00
31346;BME280;21711;49.708;18.568;2023-01-28T12:40:55;97857.06;;;-0.43;100.00
31346;BME280;21711;49.708;18.568;2023-01-28T12:46:36;97860.34;;;-0.34;100.00
31346;BME280;21711;49.708;18.568;2023-01-28T12:49:53;97854.97;;;-0.54;100.00
31346;BME280;21711;49.708;18.568;2023-01-28T12:52:35;97862.94;;;-0.56;100.00
31346;BME280;21711;49.708;18.568;2023-01-28T12:58:02;97867.69;;;-0.59;100.00
31346;BME280;21711;49.708;18.568;2023-01-28T13:00:35;97870.28;;;-0.81;100.00
31346;BME280;21711;49.708;18.568;2023-01-28T13:03:26;97873.78;;;-0.52;100.00
31346;BME280;21711;49.708;18.568;2023-01-28T13:06:20;97874.34;;;-0.35;100.00
31346;BME280;21711;49.708;18.568;2023-01-28T13:08:59;97876.19;;;-0.29;100.00
31346;BME280;21711;49.708;18.568;2023-01-28T13:11:34;97879.06;;;-0.38;100.00
31346;BME280;21711;49.708;18.568;2023-01-28T13:14:03;97888.69;;;-0.39;100.00
31346;BME280;21711;49.708;18.568;2023-01-28T13:16:35;97885.72;;;-0.58;100.00
31346;BME280;21711;49.708;18.568;2023-01-28T13:19:07;97890.91;;;-0.58;100.00
31346;BME280;21711;49.708;18.568;2023-01-28T13:21:35;97897.09;;;-0.59;100.00
31346;BME280;21711;49.708;18.568;2023-01-28T13:26:56;97894.75;;;-0.54;100.00
31346;BME280;21711;49.708;18.568;2023-01-28T13:31:54;97895.19;;;-0.50;100.00
31346;BME280;21711;49.708;18.568;2023-01-28T13:34:37;97890.66;;;-0.41;100.00
31346;BME280;21711;49.708;18.568;2023-01-28T13:37:33;97892.75;;;-0.51;100.00
31346;BME280;21711;49.708;18.568;2023-01-28T13:40:19;97890.84;;;-0.43;100.00
31346;BME280;21711;49.708;18.568;2023-01-28T13:43:27;97890.66;;;-0.41;100.00
31346;BME280;21711;49.708;18.568;2023-01-28T13:46:05;97894.56;;;-0.52;100.00
31346;BME280;21711;49.708;18.568;2023-01-28T13:48:48;97895.19;;;-0.50;100.00
31346;BME280;21711;49.708;18.568;2023-01-28T13:51:30;97888.00;;;-0.26;100.00
31346;BME280;21711;49.708;18.568;2023-01-28T13:54:16;97891.84;;;-0.22;100.00
31346;BME280;21711;49.708;18.568;2023-01-28T14:15:45;97910.38;;;-0.25;100.00
31346;BME280;21711;49.708;18.568;2023-01-28T14:18:27;97921.50;;;-0.16;100.00
31346;BME280;21711;49.708;18.568;2023-01-28T14:20:58;97922.22;;;-0.22;100.00
31346;BME280;21711;49.708;18.568;2023-01-28T14:23:27;97921.03;;;-0.20;100.00
31346;BME280;21711;49.708;18.568;2023-01-28T14:26:07;97928.13;;;-0.50;100.00
31346;BME280;21711;49.708;18.568;2023-01-28T14:29:15;97931.44;;;-0.42;100.00
31346;BME280;21711;49.708;18.568;2023-01-28T14:31:46;97930.03;;;-0.44;100.00
31346;BME280;21711;49.708;18.568;2023-01-28T14:34:27;97929.28;;;-0.38;100.00
31346;BME280;21711;49.708;18.568;2023-01-28T14:37:11;97925.94;;;-0.54;100.00
31346;BME280;21711;49.708;18.568;2023-01-28T14:42:31;97929.16;;;-0.30;100.00
31346;BME280;21711;49.708;18.568;2023-01-28T14:56:49;97930.94;;;-0.52;100.00
31346;BME280;21711;49.708;18.568;2023-01-28T14:59:46;97925.53;;;-0.72;100.00
31346;BME280;21711;49.708;18.568;2023-01-28T15:02:24;97931.22;;;-0.62;100.00
31346;BME280;21711;49.708;18.568;2023-01-28T15:04:53;97946.47;;;-0.37;100.00
31346;BME280;21711;49.708;18.568;2023-01-28T15:07:26;97943.59;;;-0.27;100.00
31346;BME280;21711;49.708;18.568;2023-01-28T15:12:37;97956.13;;;-0.52;100.00
31346;BME280;21711;49.708;18.568;2023-01-28T15:15:28;97955.59;;;-0.63;100.00
31346;BME280;21711;49.708;18.568;2023-01-28T15:18:33;97957.13;;;-0.69;100.00
31346;BME280;21711;49.708;18.568;2023-01-28T15:21:29;97952.50;;;-0.73;100.00
31346;BME280;21711;49.708;18.568;2023-01-28T15:24:00;97961.41;;;-0.61;100.00
31346;BME280;21711;49.708;18.568;2023-01-28T15:26:33;97960.25;;;-0.58;100.00